createdAt,value
2022-07-29T00:02:13.856Z,13.57
2022-07-29T00:06:16.518Z,13.55
2022-07-29T00:10:18.815Z,13.50
2022-07-29T00:14:21.112Z,13.43
2022-07-29T00:18:23.216Z,13.40
2022-07-29T00:22:25.327Z,13.35
2022-07-29T00:26:32.121Z,13.37
2022-07-29T00:30:34.285Z,13.36
2022-07-29T00:34:54.952Z,13.30
2022-07-29T00:38:57.040Z,13.25
2022-07-29T00:42:59.229Z,13.17
2022-07-29T00:47:01.641Z,13.09
2022-07-29T00:51:05.145Z,13.07
2022-07-29T00:55:10.236Z,12.98
2022-07-29T00:59:12.303Z,12.87
2022-07-29T01:03:14.396Z,12.79
2022-07-29T01:07:17.962Z,12.72
2022-07-29T01:11:20.807Z,12.72
2022-07-29T01:15:23.557Z,12.78
2022-07-29T01:19:35.204Z,12.82
2022-07-29T01:23:37.184Z,12.76
2022-07-29T01:27:47.951Z,12.73
2022-07-29T01:32:02.662Z,12.69
2022-07-29T01:36:11.448Z,12.64
2022-07-29T01:40:32.221Z,12.55
2022-07-29T01:44:40.560Z,12.47
2022-07-29T01:49:01.159Z,12.28
2022-07-29T01:53:07.542Z,12.23
2022-07-29T01:57:14.228Z,12.25
2022-07-29T02:01:17.132Z,12.33
2022-07-29T02:05:22.737Z,12.22
2022-07-29T02:09:27.373Z,12.12
2022-07-29T02:13:31.023Z,12.05
2022-07-29T02:17:46.581Z,12.03
2022-07-29T02:21:51.341Z,11.95
2022-07-29T02:25:56.634Z,11.88
2022-07-29T02:30:01.300Z,11.93
2022-07-29T02:34:07.702Z,11.92
2022-07-29T02:38:34.348Z,11.94
2022-07-29T02:42:38.062Z,11.99
2022-07-29T02:46:51.692Z,12.04
2022-07-29T02:51:05.276Z,12.10
2022-07-29T02:55:38.514Z,12.10
2022-07-29T02:59:43.626Z,12.08
2022-07-29T03:03:47.001Z,12.06
2022-07-29T03:08:03.462Z,12.06
2022-07-29T03:12:06.646Z,12.10
2022-07-29T03:16:10.159Z,12.10
2022-07-29T03:20:13.480Z,12.12
2022-07-29T03:24:29.559Z,12.10
2022-07-29T03:28:31.812Z,12.10
2022-07-29T03:32:34.289Z,12.14
2022-07-29T03:36:36.426Z,12.20
2022-07-29T03:40:52.229Z,12.32
2022-07-29T03:44:55.972Z,12.41
2022-07-29T03:49:02.051Z,12.40
2022-07-29T03:53:04.768Z,12.48
2022-07-29T03:57:10.637Z,12.62
2022-07-29T04:01:13.558Z,12.84
2022-07-29T04:05:16.928Z,12.98
2022-07-29T04:09:19.121Z,13.17
2022-07-29T04:13:21.542Z,13.40
2022-07-29T04:17:23.657Z,13.66
2022-07-29T04:21:26.358Z,14.12
2022-07-29T04:25:28.521Z,14.64
2022-07-29T04:29:30.646Z,15.21
2022-07-29T04:33:32.760Z,15.91
2022-07-29T04:37:34.810Z,16.52
2022-07-29T04:41:37.623Z,17.11
2022-07-29T04:45:40.133Z,17.71
2022-07-29T04:49:42.253Z,18.17
2022-07-29T04:53:44.453Z,18.64
2022-07-29T04:57:46.718Z,19.04
2022-07-29T05:01:48.975Z,19.53
2022-07-29T05:05:51.290Z,19.90
2022-07-29T05:09:53.763Z,20.16
2022-07-29T05:13:55.830Z,20.40
2022-07-29T05:17:57.970Z,20.62
2022-07-29T05:22:00.612Z,20.75
2022-07-29T05:26:02.729Z,20.70
2022-07-29T05:30:05.309Z,20.65
2022-07-29T05:34:07.461Z,20.62
2022-07-29T05:38:09.581Z,20.54
2022-07-29T05:42:11.781Z,20.52
2022-07-29T05:46:14.686Z,20.47
2022-07-29T05:50:17.295Z,20.48
2022-07-29T05:54:19.444Z,20.46
2022-07-29T05:58:21.782Z,20.41
2022-07-29T06:02:23.910Z,20.40
2022-07-29T06:06:26.022Z,20.33
2022-07-29T06:10:28.220Z,20.32
2022-07-29T06:14:30.593Z,20.23
2022-07-29T06:18:32.662Z,20.18
2022-07-29T06:22:34.758Z,20.21
2022-07-29T06:26:39.737Z,20.18
2022-07-29T06:30:42.170Z,20.23
2022-07-29T06:34:44.245Z,20.34
2022-07-29T06:38:52.106Z,20.42
2022-07-29T06:42:54.537Z,20.45
2022-07-29T06:46:56.920Z,20.49
2022-07-29T06:50:59.485Z,20.56
2022-07-29T06:55:01.576Z,20.60
2022-07-29T06:59:04.997Z,20.69
2022-07-29T07:03:07.268Z,20.84
2022-07-29T07:07:09.353Z,20.96
2022-07-29T07:11:11.894Z,21.13
2022-07-29T07:15:13.980Z,21.30
2022-07-29T07:19:16.058Z,21.47
2022-07-29T07:23:18.184Z,21.61
2022-07-29T07:27:20.351Z,21.73
2022-07-29T07:31:22.980Z,21.93
2022-07-29T07:35:25.135Z,22.18
2022-07-29T07:39:27.237Z,22.43
2022-07-29T07:43:29.268Z,22.66
2022-07-29T07:47:31.387Z,22.89
2022-07-29T07:51:36.264Z,23.13
2022-07-29T07:56:13.066Z,23.25
2022-07-29T08:00:05.801Z,23.52
2022-07-29T08:04:14.355Z,23.73
2022-07-29T08:08:16.700Z,23.88
2022-07-29T08:12:20.362Z,23.99
2022-07-29T08:16:22.986Z,24.13
2022-07-29T08:20:25.479Z,24.28
2022-07-29T08:24:46.158Z,24.41
2022-07-29T08:28:50.939Z,24.57
2022-07-29T08:32:55.231Z,24.70
2022-07-29T08:36:58.228Z,24.74
2022-07-29T08:41:03.321Z,24.88
2022-07-29T08:45:06.022Z,25.00
2022-07-29T08:49:08.218Z,25.01
2022-07-29T08:53:15.807Z,25.04
2022-07-29T08:57:19.109Z,24.98
2022-07-29T09:01:36.352Z,25.00
2022-07-29T09:05:48.246Z,25.12
2022-07-29T09:09:50.796Z,25.14
2022-07-29T09:13:53.072Z,25.06
2022-07-29T09:17:57.130Z,25.20
2022-07-29T09:22:03.143Z,25.14
2022-07-29T09:26:07.092Z,25.16
2022-07-29T09:30:14.988Z,25.18
2022-07-29T09:34:31.101Z,25.07
2022-07-29T09:38:34.357Z,25.25
2022-07-29T09:42:36.694Z,25.58
2022-07-29T09:46:38.874Z,25.80
2022-07-29T09:50:42.207Z,25.92
2022-07-29T09:54:45.507Z,25.94
2022-07-29T09:58:47.745Z,26.01
2022-07-29T10:02:50.018Z,25.96
2022-07-29T10:07:04.495Z,25.74
2022-07-29T10:11:17.331Z,25.43
2022-07-29T10:15:19.696Z,25.25
2022-07-29T10:19:22.013Z,25.43
2022-07-29T10:23:24.822Z,25.61
2022-07-29T10:27:27.087Z,25.84
2022-07-29T10:31:58.952Z,26.11
2022-07-29T10:36:33.362Z,26.11
2022-07-29T10:41:23.735Z,26.07
2022-07-29T10:45:26.008Z,26.23
2022-07-29T10:49:30.737Z,26.44
2022-07-29T10:53:54.154Z,26.58
2022-07-29T10:58:12.708Z,26.48
2022-07-29T11:02:42.150Z,26.25
2022-07-29T11:07:11.159Z,26.16
2022-07-29T11:11:19.901Z,26.13
2022-07-29T11:15:24.951Z,26.20
2022-07-29T11:19:30.735Z,26.20
2022-07-29T11:23:37.533Z,26.07
2022-07-29T11:27:40.143Z,25.90
2022-07-29T11:31:48.900Z,25.99
2022-07-29T11:36:16.760Z,26.03
2022-07-29T11:40:19.997Z,26.17
2022-07-29T11:45:40.356Z,26.23
2022-07-29T11:49:32.014Z,26.28
2022-07-29T11:53:36.419Z,26.36
2022-07-29T11:57:46.207Z,26.48
2022-07-29T12:02:36.786Z,26.51
2022-07-29T12:06:28.776Z,26.55
2022-07-29T12:10:32.890Z,26.49
2022-07-29T12:14:35.954Z,26.53
2022-07-29T12:18:38.275Z,26.64
2022-07-29T12:22:42.506Z,26.66
2022-07-29T12:26:56.247Z,26.61
2022-07-29T12:30:59.194Z,26.49
2022-07-29T12:35:08.462Z,26.30
2022-07-29T12:39:12.061Z,26.12
2022-07-29T12:43:25.335Z,26.01
2022-07-29T12:47:28.306Z,25.98
2022-07-29T12:51:33.647Z,26.02
2022-07-29T12:55:44.940Z,26.05
2022-07-29T13:00:02.251Z,26.09
2022-07-29T13:04:05.091Z,26.20
2022-07-29T13:08:22.750Z,26.31
2022-07-29T13:12:25.359Z,26.41
2022-07-29T13:16:28.352Z,26.41
2022-07-29T13:20:31.162Z,26.44
2022-07-29T13:24:34.080Z,26.50
2022-07-29T13:28:36.593Z,26.48
2022-07-29T13:32:38.997Z,26.44
2022-07-29T13:36:41.742Z,26.29
2022-07-29T13:40:46.585Z,26.21
2022-07-29T13:44:54.391Z,26.32
2022-07-29T13:48:56.703Z,26.32
2022-07-29T13:52:59.931Z,26.26
2022-07-29T13:57:02.233Z,26.26
2022-07-29T14:01:04.727Z,26.27
2022-07-29T14:05:08.810Z,26.14
2022-07-29T14:09:11.287Z,26.04
2022-07-29T14:13:24.512Z,26.16
2022-07-29T14:17:27.850Z,26.21
2022-07-29T14:21:31.250Z,26.18
2022-07-29T14:25:35.942Z,26.30
2022-07-29T14:29:41.842Z,26.63
2022-07-29T14:33:46.284Z,26.86
2022-07-29T14:37:51.711Z,27.16
2022-07-29T14:41:54.082Z,27.34
2022-07-29T14:46:01.984Z,27.38
2022-07-29T14:50:07.768Z,27.32
2022-07-29T14:54:10.062Z,27.24
2022-07-29T14:58:16.393Z,27.32
2022-07-29T15:02:19.057Z,27.35
2022-07-29T15:06:21.408Z,27.49
2022-07-29T15:10:24.684Z,27.62
2022-07-29T15:14:27.988Z,27.70
2022-07-29T15:18:30.645Z,27.75
2022-07-29T15:22:34.955Z,27.60
2022-07-29T15:26:37.253Z,27.46
2022-07-29T15:30:42.540Z,27.47
2022-07-29T15:34:44.727Z,27.47
2022-07-29T15:38:46.923Z,27.40
2022-07-29T15:42:49.169Z,27.23
2022-07-29T15:47:03.438Z,27.02
2022-07-29T15:51:05.985Z,26.89
2022-07-29T15:55:09.345Z,26.79
2022-07-29T15:59:11.603Z,26.79
2022-07-29T16:03:25.004Z,26.74
2022-07-29T16:07:31.395Z,26.57
2022-07-29T16:11:35.741Z,26.62
2022-07-29T16:15:37.930Z,26.67
2022-07-29T16:19:40.250Z,26.67
2022-07-29T16:23:46.181Z,26.63
2022-07-29T16:27:55.942Z,26.53
2022-07-29T16:32:02.548Z,26.48
2022-07-29T16:36:05.641Z,26.48
2022-07-29T16:40:16.285Z,26.42
2022-07-29T16:44:18.456Z,26.18
2022-07-29T16:48:20.643Z,25.96
2022-07-29T16:52:22.839Z,25.82
2022-07-29T16:56:24.965Z,25.70
2022-07-29T17:00:31.807Z,25.58
2022-07-29T17:04:37.285Z,25.42
2022-07-29T17:08:40.978Z,25.31
2022-07-29T17:12:43.698Z,25.26
2022-07-29T17:16:51.683Z,25.15
2022-07-29T17:21:03.304Z,25.03
2022-07-29T17:25:07.030Z,24.86
2022-07-29T17:29:11.688Z,24.67
2022-07-29T17:33:13.831Z,24.54
2022-07-29T17:37:16.080Z,24.38
2022-07-29T17:41:18.523Z,24.24
2022-07-29T17:45:20.877Z,24.11
2022-07-29T17:49:27.758Z,23.99
2022-07-29T17:53:30.284Z,23.86
2022-07-29T17:57:41.961Z,23.70
2022-07-29T18:01:44.166Z,23.52
2022-07-29T18:05:46.844Z,23.40
2022-07-29T18:09:49.005Z,23.24
2022-07-29T18:13:51.788Z,23.07
2022-07-29T18:17:57.362Z,22.95
2022-07-29T18:22:05.440Z,22.81
2022-07-29T18:26:09.077Z,22.62
2022-07-29T18:30:11.256Z,22.44
2022-07-29T18:34:13.350Z,22.21
2022-07-29T18:38:15.557Z,21.94
2022-07-29T18:42:17.837Z,21.82
2022-07-29T18:46:20.008Z,21.76
2022-07-29T18:50:29.378Z,21.67
2022-07-29T18:54:31.894Z,21.58
2022-07-29T18:58:34.007Z,21.45
2022-07-29T19:02:37.762Z,21.39
2022-07-29T19:06:41.241Z,21.34
2022-07-29T19:10:43.740Z,21.22
2022-07-29T19:14:45.970Z,21.10
2022-07-29T19:18:48.142Z,21.03
2022-07-29T19:22:50.544Z,20.95
2022-07-29T19:26:52.754Z,20.91
2022-07-29T19:30:54.971Z,20.88
2022-07-29T19:35:15.568Z,20.82
2022-07-29T19:39:17.697Z,20.74
2022-07-29T19:43:50.479Z,20.65
2022-07-29T19:48:00.653Z,20.58
2022-07-29T19:52:03.606Z,20.48
2022-07-29T19:56:05.912Z,20.43
2022-07-29T20:00:12.374Z,20.38
2022-07-29T20:04:14.713Z,20.34
2022-07-29T20:08:17.788Z,20.29
2022-07-29T20:12:21.559Z,20.23
2022-07-29T20:16:23.711Z,20.18
2022-07-29T20:20:29.475Z,20.10
2022-07-29T20:24:31.617Z,20.03
2022-07-29T20:28:33.911Z,19.95
2022-07-29T20:32:36.031Z,19.89
2022-07-29T20:36:38.151Z,19.85
2022-07-29T20:40:40.310Z,19.76
2022-07-29T20:44:42.589Z,19.70
2022-07-29T20:48:45.380Z,19.65
2022-07-29T20:52:47.642Z,19.59
2022-07-29T20:56:49.862Z,19.51
2022-07-29T21:00:52.138Z,19.45
2022-07-29T21:04:54.403Z,19.38
2022-07-29T21:08:57.953Z,19.32
2022-07-29T21:13:00.677Z,19.25
2022-07-29T21:17:05.827Z,19.18
2022-07-29T21:21:08.051Z,19.11
2022-07-29T21:25:11.242Z,19.05
2022-07-29T21:29:13.392Z,18.99
2022-07-29T21:33:15.589Z,18.93
2022-07-29T21:37:17.960Z,18.89
2022-07-29T21:41:21.488Z,18.83
2022-07-29T21:45:23.705Z,18.80
2022-07-29T21:49:25.823Z,18.76
2022-07-29T21:53:28.215Z,18.72
2022-07-29T21:57:30.344Z,18.67
2022-07-29T22:01:39.044Z,18.67
2022-07-29T22:05:41.787Z,18.68
2022-07-29T22:09:44.206Z,18.67
2022-07-29T22:13:46.425Z,18.66
2022-07-29T22:17:48.755Z,18.69
2022-07-29T22:21:50.883Z,18.70
2022-07-29T22:25:54.111Z,18.68
2022-07-29T22:29:56.250Z,18.65
2022-07-29T22:33:58.399Z,18.62
2022-07-29T22:38:00.448Z,18.61
2022-07-29T22:42:02.542Z,18.59
2022-07-29T22:46:05.084Z,18.57
2022-07-29T22:50:07.599Z,18.56
2022-07-29T22:54:09.686Z,18.56
2022-07-29T22:58:12.090Z,18.56
2022-07-29T23:02:14.213Z,18.55
2022-07-29T23:06:16.622Z,18.52
2022-07-29T23:10:18.779Z,18.48
2022-07-29T23:14:20.902Z,18.47
2022-07-29T23:18:23.063Z,18.44
2022-07-29T23:22:25.155Z,18.42
2022-07-29T23:26:27.752Z,18.39
2022-07-29T23:30:30.489Z,18.39
2022-07-29T23:34:32.630Z,18.36
2022-07-29T23:38:34.850Z,18.35
2022-07-29T23:42:37.927Z,18.34
2022-07-29T23:46:40.227Z,18.31
2022-07-29T23:50:42.427Z,18.33
2022-07-29T23:54:44.583Z,18.40
2022-07-29T23:58:46.646Z,18.42
